createdAt,value
2022-11-21T00:02:16.897Z,10.80
2022-11-21T00:04:48.754Z,11.70
2022-11-21T00:07:20.692Z,11.40
2022-11-21T00:09:52.586Z,10.63
2022-11-21T00:12:24.493Z,11.52
2022-11-21T00:14:57.507Z,12.23
2022-11-21T00:17:29.387Z,12.60
2022-11-21T00:20:01.228Z,13.02
2022-11-21T00:22:33.132Z,12.13
2022-11-21T00:25:05.488Z,12.90
2022-11-21T00:27:37.408Z,13.18
2022-11-21T00:30:11.026Z,12.98
2022-11-21T00:32:43.019Z,11.98
2022-11-21T00:35:14.992Z,11.63
2022-11-21T00:37:48.748Z,12.00
2022-11-21T00:40:20.559Z,11.88
2022-11-21T00:42:52.470Z,12.30
2022-11-21T00:45:24.814Z,12.60
2022-11-21T00:47:56.808Z,11.77
2022-11-21T00:50:28.785Z,11.57
2022-11-21T00:53:00.654Z,11.30
2022-11-21T00:55:32.533Z,11.95
2022-11-21T00:58:04.546Z,12.70
2022-11-21T01:00:36.452Z,12.50
2022-11-21T01:03:08.531Z,12.73
2022-11-21T01:05:40.375Z,12.23
2022-11-21T01:08:12.307Z,12.70
2022-11-21T01:10:44.234Z,13.48
2022-11-21T01:13:16.133Z,13.82
2022-11-21T01:15:48.049Z,13.95
2022-11-21T01:18:19.916Z,13.43
2022-11-21T01:20:51.888Z,13.30
2022-11-21T01:23:23.737Z,13.95
2022-11-21T01:25:55.633Z,14.10
2022-11-21T01:28:27.549Z,14.43
2022-11-21T01:31:08.056Z,14.27
2022-11-21T01:33:40.368Z,14.10
2022-11-21T01:36:41.968Z,15.43
2022-11-21T01:39:13.879Z,14.68
2022-11-21T01:41:46.329Z,15.57
2022-11-21T01:44:26.014Z,15.60
2022-11-21T01:46:58.101Z,14.00
2022-11-21T01:49:32.609Z,15.50
2022-11-21T01:52:24.794Z,15.32
2022-11-21T01:55:08.438Z,15.68
2022-11-21T01:57:45.983Z,15.98
2022-11-21T02:00:24.467Z,15.02
2022-11-21T02:03:06.633Z,15.98
2022-11-21T02:05:40.674Z,16.00
2022-11-21T02:08:24.128Z,16.23
2022-11-21T02:11:12.068Z,16.58
2022-11-21T02:13:44.044Z,17.85
2022-11-21T02:16:15.968Z,17.67
2022-11-21T02:18:47.993Z,17.27
2022-11-21T02:22:21.112Z,17.95
2022-11-21T02:25:08.630Z,16.00
2022-11-21T02:27:40.785Z,16.25
2022-11-21T02:30:13.465Z,16.17
2022-11-21T02:32:49.005Z,16.00
2022-11-21T02:35:20.921Z,17.15
2022-11-21T02:37:59.752Z,17.10
2022-11-21T02:40:39.804Z,17.98
2022-11-21T02:43:28.631Z,18.13
2022-11-21T02:46:00.514Z,17.50
2022-11-21T02:48:32.508Z,18.17
2022-11-21T02:51:04.684Z,18.42
2022-11-21T02:53:36.829Z,19.02
2022-11-21T02:56:08.758Z,18.45
2022-11-21T02:58:40.987Z,17.75
2022-11-21T03:01:12.866Z,17.70
2022-11-21T03:03:44.768Z,17.33
2022-11-21T03:06:16.776Z,19.85
2022-11-21T03:08:48.720Z,19.50
2022-11-21T03:11:20.580Z,19.77
2022-11-21T03:13:52.462Z,19.38
2022-11-21T03:16:24.399Z,19.10
2022-11-21T03:18:56.489Z,18.35
2022-11-21T03:21:28.396Z,20.17
2022-11-21T03:24:00.321Z,19.27
2022-11-21T03:26:32.168Z,18.95
2022-11-21T03:29:04.180Z,19.75
2022-11-21T03:31:36.035Z,19.90
2022-11-21T03:34:07.939Z,19.10
2022-11-21T03:36:39.904Z,18.45
2022-11-21T03:39:11.969Z,20.02
2022-11-21T03:41:43.903Z,18.58
2022-11-21T03:44:16.198Z,18.92
2022-11-21T03:46:48.331Z,19.00
2022-11-21T03:49:20.201Z,18.23
2022-11-21T03:51:52.113Z,19.35
2022-11-21T03:54:24.072Z,18.73
2022-11-21T03:56:55.889Z,18.17
2022-11-21T03:59:27.808Z,19.08
2022-11-21T04:01:59.729Z,19.05
2022-11-21T04:04:31.666Z,20.13
2022-11-21T04:07:03.721Z,19.65
2022-11-21T04:09:35.732Z,19.40
2022-11-21T04:12:08.187Z,20.17
2022-11-21T04:14:40.132Z,20.73
2022-11-21T04:17:12.045Z,20.63
2022-11-21T04:19:43.962Z,21.15
2022-11-21T04:22:15.764Z,19.75
2022-11-21T04:24:47.559Z,19.58
2022-11-21T04:27:19.415Z,21.15
2022-11-21T04:29:51.342Z,21.80
2022-11-21T04:32:23.182Z,21.50
2022-11-21T04:34:55.056Z,21.42
2022-11-21T04:37:27.021Z,20.63
2022-11-21T04:39:59.200Z,21.42
2022-11-21T04:42:31.387Z,20.88
2022-11-21T04:45:04.160Z,21.63
2022-11-21T04:47:40.476Z,22.10
2022-11-21T04:50:16.126Z,20.02
2022-11-21T04:52:55.929Z,20.35
2022-11-21T04:55:31.068Z,20.23
2022-11-21T04:58:03.330Z,20.08
2022-11-21T05:00:35.907Z,21.10
2022-11-21T05:03:08.251Z,22.63
2022-11-21T05:05:40.315Z,22.58
2022-11-21T05:08:12.357Z,21.85
2022-11-21T05:11:07.432Z,21.95
2022-11-21T05:13:39.457Z,22.40
2022-11-21T05:16:11.405Z,22.52
2022-11-21T05:18:43.380Z,23.75
2022-11-21T05:21:15.341Z,23.00
2022-11-21T05:23:47.315Z,22.90
2022-11-21T05:26:19.394Z,23.02
2022-11-21T05:28:51.452Z,23.25
2022-11-21T05:31:23.391Z,24.90
2022-11-21T05:33:55.552Z,24.50
2022-11-21T05:36:46.857Z,24.13
2022-11-21T05:39:19.234Z,23.08
2022-11-21T05:41:51.290Z,23.13
2022-11-21T05:44:23.211Z,24.27
2022-11-21T05:46:55.157Z,24.80
2022-11-21T05:49:26.969Z,25.95
2022-11-21T05:51:58.801Z,24.83
2022-11-21T05:54:30.860Z,25.40
2022-11-21T05:57:02.883Z,26.25
2022-11-21T05:59:34.779Z,26.75
2022-11-21T06:02:39.131Z,25.23
2022-11-21T06:05:10.975Z,26.55
2022-11-21T06:07:42.838Z,27.25
2022-11-21T06:10:14.908Z,28.05
2022-11-21T06:12:46.772Z,27.25
2022-11-21T06:15:18.657Z,27.45
2022-11-21T06:17:50.623Z,26.50
2022-11-21T06:20:22.544Z,26.67
2022-11-21T06:22:54.583Z,26.00
2022-11-21T06:25:26.464Z,26.73
2022-11-21T06:28:00.564Z,26.88
2022-11-21T06:30:33.170Z,25.45
2022-11-21T06:33:06.630Z,25.58
2022-11-21T06:35:39.000Z,25.10
2022-11-21T06:38:13.542Z,24.77
2022-11-21T06:40:45.499Z,24.27
2022-11-21T06:43:17.389Z,23.70
2022-11-21T06:45:49.224Z,24.40
2022-11-21T06:48:21.244Z,24.02
2022-11-21T06:50:53.103Z,24.05
2022-11-21T06:53:25.064Z,23.65
2022-11-21T06:55:59.889Z,20.10
2022-11-21T06:58:32.241Z,22.50
2022-11-21T07:01:09.561Z,19.17
2022-11-21T07:03:44.715Z,18.98
2022-11-21T07:06:16.625Z,18.65
2022-11-21T07:09:00.057Z,18.00
2022-11-21T07:11:40.543Z,18.20
2022-11-21T07:14:12.430Z,18.98
2022-11-21T07:16:44.287Z,18.20
2022-11-21T07:19:16.094Z,16.10
2022-11-21T07:21:47.973Z,17.67
2022-11-21T07:24:19.856Z,19.30
2022-11-21T07:26:51.658Z,18.70
2022-11-21T07:29:23.577Z,18.45
2022-11-21T07:31:55.480Z,18.67
2022-11-21T07:34:27.400Z,17.35
2022-11-21T07:36:59.300Z,18.35
2022-11-21T07:39:31.260Z,17.92
2022-11-21T07:42:03.201Z,17.30
2022-11-21T07:44:35.087Z,17.90
2022-11-21T07:47:06.976Z,15.85
2022-11-21T07:49:38.794Z,16.42
2022-11-21T07:52:10.628Z,18.33
2022-11-21T07:54:42.449Z,18.23
2022-11-21T07:57:14.316Z,26.17
2022-11-21T07:59:46.214Z,19.80
2022-11-21T08:02:26.105Z,19.17
2022-11-21T08:04:58.004Z,19.67
2022-11-21T08:07:29.883Z,20.30
2022-11-21T08:10:01.740Z,20.48
2022-11-21T08:12:33.933Z,19.73
2022-11-21T08:15:06.990Z,20.40
2022-11-21T08:17:39.438Z,20.27
2022-11-21T08:20:11.754Z,19.85
2022-11-21T08:22:44.408Z,20.15
2022-11-21T08:25:16.357Z,20.23
2022-11-21T08:27:48.305Z,20.98
2022-11-21T08:30:20.235Z,22.30
2022-11-21T08:32:52.317Z,22.25
2022-11-21T08:35:24.858Z,22.13
2022-11-21T08:38:00.934Z,21.73
2022-11-21T08:40:33.741Z,21.98
2022-11-21T08:43:08.362Z,22.48
2022-11-21T08:45:40.260Z,22.63
2022-11-21T08:48:12.408Z,22.60
2022-11-21T08:50:44.352Z,22.85
2022-11-21T08:53:16.258Z,23.90
2022-11-21T08:55:48.206Z,24.63
2022-11-21T08:58:20.124Z,24.25
2022-11-21T09:00:51.966Z,23.65
2022-11-21T09:03:29.583Z,24.10
2022-11-21T09:06:03.221Z,24.02
2022-11-21T09:08:35.132Z,24.10
2022-11-21T09:11:09.612Z,24.85
2022-11-21T09:13:41.536Z,23.75
2022-11-21T09:16:31.837Z,24.00
2022-11-21T09:19:03.728Z,24.38
2022-11-21T09:21:35.649Z,25.95
2022-11-21T09:24:07.626Z,24.83
2022-11-21T09:26:39.494Z,24.60
2022-11-21T09:29:11.529Z,24.67
2022-11-21T09:31:44.492Z,25.02
2022-11-21T09:34:16.537Z,25.13
2022-11-21T09:36:48.496Z,25.30
2022-11-21T09:39:21.696Z,24.65
2022-11-21T09:41:53.630Z,24.48
2022-11-21T09:44:32.004Z,21.38
2022-11-21T09:47:22.214Z,23.63
2022-11-21T09:50:01.087Z,24.15
2022-11-21T09:52:54.318Z,25.33
2022-11-21T09:56:00.565Z,27.90
2022-11-21T09:58:49.051Z,25.20
2022-11-21T10:01:20.943Z,25.98
2022-11-21T10:03:52.927Z,26.30
2022-11-21T10:06:29.258Z,25.20
2022-11-21T10:09:31.852Z,27.30
2022-11-21T10:12:38.290Z,26.75
2022-11-21T10:15:13.377Z,26.65
2022-11-21T10:18:04.185Z,26.85
2022-11-21T10:20:49.900Z,26.75
2022-11-21T10:23:43.542Z,26.95
2022-11-21T10:26:31.070Z,26.13
2022-11-21T10:29:14.995Z,25.17
2022-11-21T10:31:48.767Z,25.25
2022-11-21T10:34:25.719Z,25.63
2022-11-21T10:37:02.010Z,26.15
2022-11-21T10:39:40.321Z,27.67
2022-11-21T10:42:38.121Z,27.15
2022-11-21T10:45:16.877Z,27.02
2022-11-21T10:47:51.651Z,26.90
2022-11-21T10:50:50.241Z,27.35
2022-11-21T10:53:43.228Z,28.52
2022-11-21T10:56:18.695Z,28.67
2022-11-21T10:58:56.197Z,29.95
2022-11-21T11:01:35.719Z,28.60
2022-11-21T11:07:25.716Z,29.27
2022-11-21T11:10:27.652Z,28.52
2022-11-21T11:16:10.797Z,28.63
2022-11-21T11:19:09.456Z,27.02
2022-11-21T11:21:41.406Z,26.73
2022-11-21T11:24:13.244Z,27.05
2022-11-21T11:26:48.802Z,28.45
2022-11-21T11:29:24.822Z,29.58
2022-11-21T11:32:27.451Z,27.92
2022-11-21T11:35:00.986Z,29.25
2022-11-21T11:37:41.667Z,26.45
2022-11-21T11:40:35.869Z,27.90
2022-11-21T11:43:51.169Z,27.58
2022-11-21T11:47:00.001Z,26.38
2022-11-21T11:50:15.833Z,26.30
2022-11-21T11:53:08.992Z,27.63
2022-11-21T11:55:53.645Z,27.20
2022-11-21T11:58:40.312Z,27.95
2022-11-21T12:01:29.509Z,26.65
2022-11-21T12:04:21.022Z,28.15
2022-11-21T12:10:23.770Z,26.98
2022-11-21T12:13:06.401Z,27.38
2022-11-21T12:15:59.975Z,27.77
2022-11-21T12:19:06.217Z,28.98
2022-11-21T12:21:38.156Z,27.63
2022-11-21T12:24:12.235Z,34.90
2022-11-21T12:27:11.990Z,36.42
2022-11-21T12:29:59.717Z,29.60
2022-11-21T12:32:43.370Z,31.92
2022-11-21T12:35:23.739Z,30.83
2022-11-21T12:38:23.657Z,29.92
2022-11-21T12:41:36.509Z,32.08
2022-11-21T12:44:30.169Z,29.63
2022-11-21T12:47:14.351Z,32.83
2022-11-21T12:50:38.637Z,32.28
2022-11-21T12:53:51.899Z,32.45
2022-11-21T12:56:38.547Z,32.08
2022-11-21T12:59:14.134Z,32.70
2022-11-21T13:02:08.780Z,33.63
2022-11-21T13:04:42.950Z,32.22
2022-11-21T13:07:15.649Z,35.45
2022-11-21T13:09:51.092Z,34.17
2022-11-21T13:12:27.741Z,34.85
2022-11-21T13:15:04.792Z,36.25
2022-11-21T13:17:45.311Z,35.15
2022-11-21T13:20:40.072Z,34.33
2022-11-21T13:23:42.807Z,34.30
2022-11-21T13:26:29.739Z,36.58
2022-11-21T13:29:14.740Z,35.05
2022-11-21T13:31:48.143Z,35.60
2022-11-21T13:34:32.400Z,36.15
2022-11-21T13:37:05.458Z,34.95
2022-11-21T13:39:38.389Z,36.88
2022-11-21T13:42:29.593Z,35.88
2022-11-21T13:45:43.686Z,36.00
2022-11-21T13:48:21.838Z,36.55
2022-11-21T13:51:31.364Z,38.70
2022-11-21T13:54:19.732Z,37.55
2022-11-21T13:57:12.984Z,38.03
2022-11-21T13:59:59.847Z,44.17
2022-11-21T14:02:38.184Z,39.53
2022-11-21T14:05:25.408Z,39.90
2022-11-21T14:08:22.656Z,44.03
2022-11-21T14:10:56.506Z,43.33
2022-11-21T14:13:28.372Z,44.20
2022-11-21T14:16:14.705Z,41.85
2022-11-21T14:18:47.530Z,41.95
2022-11-21T14:21:26.857Z,42.83
2022-11-21T14:24:04.840Z,41.80
2022-11-21T14:26:43.824Z,41.17
2022-11-21T14:29:37.525Z,41.92
2022-11-21T14:32:15.508Z,40.72
2022-11-21T14:34:47.388Z,42.90
2022-11-21T14:37:19.440Z,40.75
2022-11-21T14:39:56.957Z,41.30
2022-11-21T14:42:36.655Z,42.15
2022-11-21T14:45:19.721Z,53.38
2022-11-21T14:47:55.132Z,42.13
2022-11-21T14:50:35.144Z,43.22
2022-11-21T14:53:07.130Z,41.88
2022-11-21T14:55:39.268Z,44.63
2022-11-21T14:58:16.292Z,47.08
2022-11-21T15:01:30.589Z,49.67
2022-11-21T15:04:05.860Z,47.42
2022-11-21T15:06:42.863Z,48.00
2022-11-21T15:10:25.312Z,44.28
2022-11-21T15:12:10.565Z,43.45
2022-11-21T15:14:58.983Z,44.55
2022-11-21T15:17:31.610Z,46.10
2022-11-21T15:20:26.235Z,48.10
2022-11-21T15:23:00.773Z,45.13
2022-11-21T15:25:47.251Z,47.88
2022-11-21T15:28:19.607Z,48.90
2022-11-21T15:31:24.134Z,47.13
2022-11-21T15:34:34.749Z,48.10
2022-11-21T15:37:14.683Z,51.45
2022-11-21T15:39:50.158Z,51.90
2022-11-21T15:42:34.152Z,51.05
2022-11-21T15:45:19.839Z,49.58
2022-11-21T15:47:53.034Z,53.83
2022-11-21T15:50:26.291Z,62.28
2022-11-21T15:52:58.288Z,92.88
2022-11-21T15:55:31.441Z,91.32
2022-11-21T15:58:03.247Z,59.95
2022-11-21T16:00:35.713Z,55.28
2022-11-21T16:03:07.635Z,56.70
2022-11-21T16:05:39.725Z,55.65
2022-11-21T16:08:11.634Z,57.00
2022-11-21T16:10:43.581Z,63.95
2022-11-21T16:13:15.625Z,52.45
2022-11-21T16:15:47.472Z,50.10
2022-11-21T16:18:19.390Z,57.28
2022-11-21T16:20:51.182Z,60.05
2022-11-21T16:23:23.073Z,73.60
2022-11-21T16:25:55.423Z,74.18
2022-11-21T16:28:27.873Z,74.47
2022-11-21T16:31:00.708Z,64.55
2022-11-21T16:33:33.721Z,65.18
2022-11-21T16:36:05.614Z,60.63
2022-11-21T16:38:37.466Z,55.97
2022-11-21T16:41:09.346Z,55.80
2022-11-21T16:43:49.975Z,57.83
2022-11-21T16:46:24.113Z,56.23
2022-11-21T16:49:01.204Z,53.40
2022-11-21T16:51:33.173Z,52.70
2022-11-21T16:54:08.825Z,60.05
2022-11-21T16:56:41.338Z,62.97
2022-11-21T16:59:13.697Z,60.38
2022-11-21T17:01:45.684Z,58.67
2022-11-21T17:04:17.937Z,57.17
2022-11-21T17:06:50.060Z,59.05
2022-11-21T17:09:21.905Z,56.47
2022-11-21T17:11:57.511Z,53.80
2022-11-21T17:14:29.597Z,54.13
2022-11-21T17:17:01.550Z,55.20
2022-11-21T17:19:33.478Z,53.20
2022-11-21T17:22:05.373Z,51.53
2022-11-21T17:24:37.421Z,50.47
2022-11-21T17:27:09.298Z,51.45
2022-11-21T17:29:41.216Z,50.25
2022-11-21T17:32:13.122Z,54.13
2022-11-21T17:34:45.034Z,51.72
2022-11-21T17:37:17.527Z,50.38
2022-11-21T17:39:49.578Z,51.72
2022-11-21T17:42:21.586Z,53.90
2022-11-21T17:44:53.510Z,53.33
2022-11-21T17:47:25.512Z,104.28
2022-11-21T17:50:02.569Z,62.13
2022-11-21T17:52:37.520Z,65.75
2022-11-21T17:55:09.425Z,59.20
2022-11-21T17:57:41.366Z,61.33
2022-11-21T18:00:13.897Z,59.92
2022-11-21T18:02:47.241Z,56.78
2022-11-21T18:05:19.383Z,53.20
2022-11-21T18:07:51.556Z,51.78
2022-11-21T18:10:42.255Z,50.38
2022-11-21T18:13:15.456Z,50.78
2022-11-21T18:15:48.075Z,52.85
2022-11-21T18:18:20.395Z,52.75
2022-11-21T18:20:52.280Z,52.90
2022-11-21T18:23:24.184Z,52.30
2022-11-21T18:25:56.042Z,54.38
2022-11-21T18:28:27.898Z,57.08
2022-11-21T18:31:11.214Z,55.13
2022-11-21T18:33:43.970Z,50.42
2022-11-21T18:36:16.249Z,53.78
2022-11-21T18:38:51.373Z,51.42
2022-11-21T18:41:29.345Z,50.63
2022-11-21T18:44:04.166Z,50.72
2022-11-21T18:46:37.686Z,52.03
2022-11-21T18:49:09.803Z,50.92
2022-11-21T18:51:41.851Z,52.10
2022-11-21T18:54:13.849Z,53.17
2022-11-21T18:56:47.006Z,51.55
2022-11-21T18:59:19.328Z,53.13
2022-11-21T19:01:51.305Z,46.85
2022-11-21T19:04:24.790Z,47.30
2022-11-21T19:06:56.851Z,46.90
2022-11-21T19:09:32.505Z,47.08
2022-11-21T19:12:04.929Z,44.85
2022-11-21T19:14:36.832Z,47.22
2022-11-21T19:17:09.217Z,47.83
2022-11-21T19:19:41.372Z,45.90
2022-11-21T19:22:14.009Z,42.40
2022-11-21T19:24:46.309Z,40.53
2022-11-21T19:27:20.739Z,44.58
2022-11-21T19:29:55.265Z,41.72
2022-11-21T19:32:27.264Z,37.70
2022-11-21T19:34:59.215Z,35.85
2022-11-21T19:37:55.940Z,36.30
2022-11-21T19:40:48.038Z,36.10
2022-11-21T19:43:20.194Z,35.95
2022-11-21T19:45:57.886Z,36.22
2022-11-21T19:48:33.890Z,36.70
2022-11-21T19:51:06.393Z,36.90
2022-11-21T19:53:39.501Z,44.55
2022-11-21T19:56:13.980Z,22.27
2022-11-21T19:58:46.806Z,29.20
2022-11-21T20:01:21.679Z,24.83
2022-11-21T20:03:56.281Z,23.17
2022-11-21T20:06:41.647Z,23.75
2022-11-21T20:09:16.991Z,24.95
2022-11-21T20:11:51.194Z,22.23
2022-11-21T20:14:23.361Z,19.55
2022-11-21T20:16:57.752Z,16.45
2022-11-21T20:19:29.821Z,15.05
2022-11-21T20:22:01.978Z,14.23
2022-11-21T20:24:38.538Z,14.23
2022-11-21T20:27:13.131Z,14.25
2022-11-21T20:29:44.989Z,14.13
2022-11-21T20:32:16.848Z,13.60
2022-11-21T20:34:48.732Z,14.05
2022-11-21T20:37:21.797Z,14.05
2022-11-21T20:39:56.190Z,13.88
2022-11-21T20:42:28.134Z,15.68
2022-11-21T20:47:52.229Z,13.77
2022-11-21T20:51:03.468Z,12.77
2022-11-21T20:56:12.314Z,11.20
2022-11-21T20:58:46.375Z,11.90
2022-11-21T21:01:20.890Z,12.00
2022-11-21T21:03:52.826Z,11.52
2022-11-21T21:06:24.725Z,12.00
2022-11-21T21:08:56.623Z,11.50
2022-11-21T21:11:50.851Z,11.60
2022-11-21T21:14:21.863Z,11.30
2022-11-21T21:16:53.826Z,12.35
2022-11-21T21:19:25.663Z,12.37
2022-11-21T21:21:57.714Z,15.23
2022-11-21T21:24:29.608Z,42.15
2022-11-21T21:27:01.755Z,15.70
2022-11-21T21:29:33.802Z,13.50
2022-11-21T21:32:06.063Z,14.00
2022-11-21T21:34:38.536Z,14.65
2022-11-21T21:37:10.656Z,14.50
2022-11-21T21:39:42.540Z,14.57
2022-11-21T21:42:14.467Z,15.55
2022-11-21T21:44:46.364Z,14.57
2022-11-21T21:47:21.314Z,15.50
2022-11-21T21:49:53.338Z,15.75
2022-11-21T21:52:25.257Z,15.10
2022-11-21T21:54:57.306Z,14.98
2022-11-21T21:57:31.997Z,15.35
2022-11-21T22:00:07.890Z,16.60
2022-11-21T22:02:43.240Z,15.25
2022-11-21T22:05:15.277Z,15.88
2022-11-21T22:07:47.239Z,11.45
2022-11-21T22:10:19.211Z,17.23
2022-11-21T22:12:51.026Z,16.52
2022-11-21T22:15:22.886Z,15.65
2022-11-21T22:17:54.725Z,14.33
2022-11-21T22:20:26.678Z,14.52
2022-11-21T22:23:00.508Z,14.35
2022-11-21T22:25:32.697Z,16.05
2022-11-21T22:28:04.755Z,19.52
2022-11-21T22:30:37.129Z,13.73
2022-11-21T22:33:09.128Z,10.90
2022-11-21T22:35:41.070Z,10.88
2022-11-21T22:38:14.333Z,7.40
2022-11-21T22:40:46.533Z,8.13
2022-11-21T22:43:18.515Z,7.75
2022-11-21T22:45:50.428Z,8.52
2022-11-21T22:48:22.337Z,8.60
2022-11-21T22:50:54.693Z,7.57
2022-11-21T22:53:26.961Z,8.30
2022-11-21T22:56:05.345Z,7.25
2022-11-21T22:58:39.717Z,7.57
2022-11-21T23:01:19.512Z,8.15
2022-11-21T23:03:52.195Z,8.82
2022-11-21T23:06:26.121Z,8.20
2022-11-21T23:08:58.273Z,8.82
2022-11-21T23:11:39.242Z,10.38
2022-11-21T23:14:12.261Z,9.82
2022-11-21T23:16:44.132Z,9.32
2022-11-21T23:19:16.101Z,10.02
2022-11-21T23:21:47.873Z,10.20
2022-11-21T23:24:19.768Z,11.25
2022-11-21T23:26:51.715Z,10.25
2022-11-21T23:29:23.571Z,9.68
2022-11-21T23:31:55.410Z,9.32
2022-11-21T23:34:27.291Z,9.30
2022-11-21T23:36:59.165Z,9.07
2022-11-21T23:39:31.648Z,9.20
2022-11-21T23:42:03.693Z,8.00
2022-11-21T23:44:35.655Z,7.90
2022-11-21T23:47:07.512Z,7.65
2022-11-21T23:49:39.353Z,7.00
2022-11-21T23:52:11.254Z,5.43
2022-11-21T23:54:43.173Z,6.53
2022-11-21T23:57:15.073Z,6.20
2022-11-21T23:59:46.998Z,6.03
